Bowlus, Minnesota
Current Conditions -  °F | °C
As of 7:58 AM on Monday 24 Nov 2014 (Local Time) from KLXL Reporting Station
Overcast Overcast  
Wind Chill:   Ceiling: 1700
Heat Index: 19°   Visibility: 10mi
Dew Point: 12°   Wind: 15mph
Humidity: 74%   Direction: 310°NW
Pressure: 29.44"   Gusts: 20mph
Location:  45.82°N, 94.41°W
Report Text: KLXL 241358Z AUTO 31013G17KT 10SM OVC017 M07/M11 A2944 RMK AO2
Loading
Personal Weather Stations






























Interactive Weather Map New forecast layout! Learn more

10-Day Weather Forecast

Advertisements
Track Severe Weather on mobile